sensor_id;sensor_type;location;lat;lon;timestamp;temperature;humidity
36186;DHT22;22228;53.222;7.446;2022-09-16T00:00:03;11.00;99.90
36186;DHT22;22228;53.222;7.446;2022-09-16T00:02:25;11.00;99.90
36186;DHT22;22228;53.222;7.446;2022-09-16T00:04:45;10.90;99.90
36186;DHT22;22228;53.222;7.446;2022-09-16T00:07:06;10.90;99.90
36186;DHT22;22228;53.222;7.446;2022-09-16T00:09:26;10.90;99.90
36186;DHT22;22228;53.222;7.446;2022-09-16T00:11:47;11.00;99.90
36186;DHT22;22228;53.222;7.446;2022-09-16T00:14:09;10.90;99.90
36186;DHT22;22228;53.222;7.446;2022-09-16T00:16:29;10.90;99.90
36186;DHT22;22228;53.222;7.446;2022-09-16T00:18:54;10.90;99.90
36186;DHT22;22228;53.222;7.446;2022-09-16T00:21:15;10.90;99.90
36186;DHT22;22228;53.222;7.446;2022-09-16T00:23:36;10.90;99.90
36186;DHT22;22228;53.222;7.446;2022-09-16T00:25:57;11.00;99.90
36186;DHT22;22228;53.222;7.446;2022-09-16T00:28:18;11.00;99.90
36186;DHT22;22228;53.222;7.446;2022-09-16T00:30:39;11.00;99.90
36186;DHT22;22228;53.222;7.446;2022-09-16T00:33:00;11.00;99.90
36186;DHT22;22228;53.222;7.446;2022-09-16T00:35:22;11.00;99.90
36186;DHT22;22228;53.222;7.446;2022-09-16T00:37:43;11.00;99.90
36186;DHT22;22228;53.222;7.446;2022-09-16T00:40:04;11.00;99.90
36186;DHT22;22228;53.222;7.446;2022-09-16T00:42:24;11.00;99.90
36186;DHT22;22228;53.222;7.446;2022-09-16T00:44:52;11.00;99.90
36186;DHT22;22228;53.222;7.446;2022-09-16T00:47:13;11.00;99.90
36186;DHT22;22228;53.222;7.446;2022-09-16T00:49:35;11.00;99.90
36186;DHT22;22228;53.222;7.446;2022-09-16T00:51:58;11.00;99.90
36186;DHT22;22228;53.222;7.446;2022-09-16T00:54:21;11.00;99.90
36186;DHT22;22228;53.222;7.446;2022-09-16T00:56:45;11.00;99.90
36186;DHT22;22228;53.222;7.446;2022-09-16T00:59:09;11.00;99.90
36186;DHT22;22228;53.222;7.446;2022-09-16T01:01:33;11.00;99.90
36186;DHT22;22228;53.222;7.446;2022-09-16T01:03:56;10.90;99.90
36186;DHT22;22228;53.222;7.446;2022-09-16T01:06:18;10.80;99.90
36186;DHT22;22228;53.222;7.446;2022-09-16T01:08:41;10.80;99.90
36186;DHT22;22228;53.222;7.446;2022-09-16T01:11:01;10.90;99.90
36186;DHT22;22228;53.222;7.446;2022-09-16T01:13:22;10.90;99.90
36186;DHT22;22228;53.222;7.446;2022-09-16T01:15:49;11.00;99.90
36186;DHT22;22228;53.222;7.446;2022-09-16T01:18:20;10.90;99.90
36186;DHT22;22228;53.222;7.446;2022-09-16T01:21:08;10.90;99.90
36186;DHT22;22228;53.222;7.446;2022-09-16T01:23:49;10.90;99.90
36186;DHT22;22228;53.222;7.446;2022-09-16T01:26:39;10.90;99.90
36186;DHT22;22228;53.222;7.446;2022-09-16T01:29:23;10.90;99.90
36186;DHT22;22228;53.222;7.446;2022-09-16T01:31:49;10.90;99.90
36186;DHT22;22228;53.222;7.446;2022-09-16T01:34:18;10.90;99.90
36186;DHT22;22228;53.222;7.446;2022-09-16T01:36:47;10.80;99.90
36186;DHT22;22228;53.222;7.446;2022-09-16T01:39:19;10.80;99.90
36186;DHT22;22228;53.222;7.446;2022-09-16T01:42:00;10.70;99.90
36186;DHT22;22228;53.222;7.446;2022-09-16T01:44:30;10.70;99.90
36186;DHT22;22228;53.222;7.446;2022-09-16T01:46:58;10.70;99.90
36186;DHT22;22228;53.222;7.446;2022-09-16T01:49:25;10.60;99.90
36186;DHT22;22228;53.222;7.446;2022-09-16T01:51:53;10.50;99.90
36186;DHT22;22228;53.222;7.446;2022-09-16T01:54:22;10.50;99.90
36186;DHT22;22228;53.222;7.446;2022-09-16T01:56:52;10.60;99.90
36186;DHT22;22228;53.222;7.446;2022-09-16T01:59:20;10.60;99.90
36186;DHT22;22228;53.222;7.446;2022-09-16T02:01:46;10.60;99.90
36186;DHT22;22228;53.222;7.446;2022-09-16T02:04:14;10.60;99.90
36186;DHT22;22228;53.222;7.446;2022-09-16T02:06:37;10.60;99.90
36186;DHT22;22228;53.222;7.446;2022-09-16T02:08:59;10.60;99.90
36186;DHT22;22228;53.222;7.446;2022-09-16T02:11:21;10.70;99.90
36186;DHT22;22228;53.222;7.446;2022-09-16T02:13:44;10.70;99.90
36186;DHT22;22228;53.222;7.446;2022-09-16T02:16:10;10.60;99.90
36186;DHT22;22228;53.222;7.446;2022-09-16T02:18:34;10.70;99.90
36186;DHT22;22228;53.222;7.446;2022-09-16T02:21:00;10.60;99.90
36186;DHT22;22228;53.222;7.446;2022-09-16T02:23:26;10.60;99.90
36186;DHT22;22228;53.222;7.446;2022-09-16T02:25:49;10.60;99.90
36186;DHT22;22228;53.222;7.446;2022-09-16T02:28:13;10.60;99.90
36186;DHT22;22228;53.222;7.446;2022-09-16T02:30:35;10.50;99.90
36186;DHT22;22228;53.222;7.446;2022-09-16T02:32:59;10.50;99.90
36186;DHT22;22228;53.222;7.446;2022-09-16T02:35:23;10.50;99.90
36186;DHT22;22228;53.222;7.446;2022-09-16T02:37:49;10.50;99.90
36186;DHT22;22228;53.222;7.446;2022-09-16T02:40:13;10.50;99.90
36186;DHT22;22228;53.222;7.446;2022-09-16T02:42:34;10.60;99.90
36186;DHT22;22228;53.222;7.446;2022-09-16T02:44:55;10.50;99.90
36186;DHT22;22228;53.222;7.446;2022-09-16T02:47:26;10.50;99.90
36186;DHT22;22228;53.222;7.446;2022-09-16T02:49:53;10.40;99.90
36186;DHT22;22228;53.222;7.446;2022-09-16T02:52:22;10.30;99.90
36186;DHT22;22228;53.222;7.446;2022-09-16T02:55:01;10.20;99.90
36186;DHT22;22228;53.222;7.446;2022-09-16T02:57:24;10.10;99.90
36186;DHT22;22228;53.222;7.446;2022-09-16T02:59:45;9.90;99.90
36186;DHT22;22228;53.222;7.446;2022-09-16T03:02:05;9.90;99.90
36186;DHT22;22228;53.222;7.446;2022-09-16T03:04:27;9.80;99.90
36186;DHT22;22228;53.222;7.446;2022-09-16T03:06:48;9.90;99.90
36186;DHT22;22228;53.222;7.446;2022-09-16T03:09:09;9.80;99.90
36186;DHT22;22228;53.222;7.446;2022-09-16T03:12:03;9.80;99.90
36186;DHT22;22228;53.222;7.446;2022-09-16T03:14:36;9.90;99.90
36186;DHT22;22228;53.222;7.446;2022-09-16T03:17:07;9.90;99.90
36186;DHT22;22228;53.222;7.446;2022-09-16T03:19:37;9.90;99.90
36186;DHT22;22228;53.222;7.446;2022-09-16T03:22:05;9.90;99.90
36186;DHT22;22228;53.222;7.446;2022-09-16T03:24:37;9.80;99.90
36186;DHT22;22228;53.222;7.446;2022-09-16T03:27:15;9.80;99.90
36186;DHT22;22228;53.222;7.446;2022-09-16T03:29:42;9.80;99.90
36186;DHT22;22228;53.222;7.446;2022-09-16T03:32:11;9.80;99.90
36186;DHT22;22228;53.222;7.446;2022-09-16T03:34:36;9.70;99.90
36186;DHT22;22228;53.222;7.446;2022-09-16T03:37:02;9.70;99.90
36186;DHT22;22228;53.222;7.446;2022-09-16T03:39:24;9.80;99.90
36186;DHT22;22228;53.222;7.446;2022-09-16T03:41:45;9.80;99.90
36186;DHT22;22228;53.222;7.446;2022-09-16T03:44:07;9.80;99.90
36186;DHT22;22228;53.222;7.446;2022-09-16T03:46:28;9.80;99.90
36186;DHT22;22228;53.222;7.446;2022-09-16T03:48:48;9.80;99.90
36186;DHT22;22228;53.222;7.446;2022-09-16T03:51:09;9.90;99.90
36186;DHT22;22228;53.222;7.446;2022-09-16T03:53:31;10.00;99.90
36186;DHT22;22228;53.222;7.446;2022-09-16T03:55:51;10.00;99.90
36186;DHT22;22228;53.222;7.446;2022-09-16T03:58:12;10.00;99.90
36186;DHT22;22228;53.222;7.446;2022-09-16T04:00:34;10.10;99.90
36186;DHT22;22228;53.222;7.446;2022-09-16T04:02:55;10.10;99.90
36186;DHT22;22228;53.222;7.446;2022-09-16T04:05:16;10.20;99.90
36186;DHT22;22228;53.222;7.446;2022-09-16T04:07:36;10.20;99.90
36186;DHT22;22228;53.222;7.446;2022-09-16T04:09:57;10.20;99.90
36186;DHT22;22228;53.222;7.446;2022-09-16T04:12:17;10.20;99.90
36186;DHT22;22228;53.222;7.446;2022-09-16T04:14:38;10.20;99.90
36186;DHT22;22228;53.222;7.446;2022-09-16T04:17:00;10.30;99.90
36186;DHT22;22228;53.222;7.446;2022-09-16T04:19:24;10.20;99.90
36186;DHT22;22228;53.222;7.446;2022-09-16T04:21:44;10.30;99.90
36186;DHT22;22228;53.222;7.446;2022-09-16T04:24:05;10.30;99.90
36186;DHT22;22228;53.222;7.446;2022-09-16T04:26:26;10.30;99.90
36186;DHT22;22228;53.222;7.446;2022-09-16T04:28:46;10.20;99.90
36186;DHT22;22228;53.222;7.446;2022-09-16T04:31:10;10.10;99.90
36186;DHT22;22228;53.222;7.446;2022-09-16T04:33:33;10.10;99.90
36186;DHT22;22228;53.222;7.446;2022-09-16T04:36:01;10.00;99.90
36186;DHT22;22228;53.222;7.446;2022-09-16T04:38:21;10.00;99.90
36186;DHT22;22228;53.222;7.446;2022-09-16T04:40:41;10.10;99.90
36186;DHT22;22228;53.222;7.446;2022-09-16T04:43:02;10.20;99.90
36186;DHT22;22228;53.222;7.446;2022-09-16T04:45:22;10.20;99.90
36186;DHT22;22228;53.222;7.446;2022-09-16T04:47:43;10.20;99.90
36186;DHT22;22228;53.222;7.446;2022-09-16T04:50:06;10.20;99.90
36186;DHT22;22228;53.222;7.446;2022-09-16T04:52:29;10.20;99.90
36186;DHT22;22228;53.222;7.446;2022-09-16T04:54:49;10.20;99.90
36186;DHT22;22228;53.222;7.446;2022-09-16T04:57:10;10.20;99.90
36186;DHT22;22228;53.222;7.446;2022-09-16T04:59:30;10.20;99.90
36186;DHT22;22228;53.222;7.446;2022-09-16T05:01:51;10.20;99.90
36186;DHT22;22228;53.222;7.446;2022-09-16T05:04:11;10.10;99.90
36186;DHT22;22228;53.222;7.446;2022-09-16T05:06:35;10.10;99.90
36186;DHT22;22228;53.222;7.446;2022-09-16T05:08:56;10.10;99.90
36186;DHT22;22228;53.222;7.446;2022-09-16T05:11:19;10.00;99.90
36186;DHT22;22228;53.222;7.446;2022-09-16T05:13:39;10.10;99.90
36186;DHT22;22228;53.222;7.446;2022-09-16T05:16:02;10.00;99.90
36186;DHT22;22228;53.222;7.446;2022-09-16T05:18:22;10.00;99.90
36186;DHT22;22228;53.222;7.446;2022-09-16T05:20:43;10.00;99.90
36186;DHT22;22228;53.222;7.446;2022-09-16T05:23:05;10.00;99.90
36186;DHT22;22228;53.222;7.446;2022-09-16T05:25:26;10.00;99.90
36186;DHT22;22228;53.222;7.446;2022-09-16T05:27:46;10.00;99.90
36186;DHT22;22228;53.222;7.446;2022-09-16T05:30:08;10.00;99.90
36186;DHT22;22228;53.222;7.446;2022-09-16T05:32:28;10.10;99.90
36186;DHT22;22228;53.222;7.446;2022-09-16T05:34:49;10.20;99.90
36186;DHT22;22228;53.222;7.446;2022-09-16T05:37:09;10.20;99.90
36186;DHT22;22228;53.222;7.446;2022-09-16T05:39:31;10.10;99.90
36186;DHT22;22228;53.222;7.446;2022-09-16T05:41:53;10.10;99.90
36186;DHT22;22228;53.222;7.446;2022-09-16T05:44:14;10.10;99.90
36186;DHT22;22228;53.222;7.446;2022-09-16T05:46:35;10.10;99.90
36186;DHT22;22228;53.222;7.446;2022-09-16T05:48:55;10.10;99.90
36186;DHT22;22228;53.222;7.446;2022-09-16T05:51:18;10.10;99.90
36186;DHT22;22228;53.222;7.446;2022-09-16T05:53:38;10.00;99.90
36186;DHT22;22228;53.222;7.446;2022-09-16T05:56:03;9.90;99.90
36186;DHT22;22228;53.222;7.446;2022-09-16T05:58:25;9.90;99.90
36186;DHT22;22228;53.222;7.446;2022-09-16T06:00:46;9.90;99.90
36186;DHT22;22228;53.222;7.446;2022-09-16T06:03:06;10.00;99.90
36186;DHT22;22228;53.222;7.446;2022-09-16T06:05:27;10.00;99.90
36186;DHT22;22228;53.222;7.446;2022-09-16T06:07:47;10.20;99.90
36186;DHT22;22228;53.222;7.446;2022-09-16T06:10:08;10.30;99.90
36186;DHT22;22228;53.222;7.446;2022-09-16T06:12:29;10.30;99.90
36186;DHT22;22228;53.222;7.446;2022-09-16T06:14:50;10.40;99.90
36186;DHT22;22228;53.222;7.446;2022-09-16T06:17:10;10.30;99.90
36186;DHT22;22228;53.222;7.446;2022-09-16T06:19:31;10.30;99.90
36186;DHT22;22228;53.222;7.446;2022-09-16T06:21:51;10.30;99.90
36186;DHT22;22228;53.222;7.446;2022-09-16T06:24:12;10.20;99.90
36186;DHT22;22228;53.222;7.446;2022-09-16T06:26:34;10.20;99.90
36186;DHT22;22228;53.222;7.446;2022-09-16T06:28:56;10.20;99.90
36186;DHT22;22228;53.222;7.446;2022-09-16T06:31:18;10.20;99.90
36186;DHT22;22228;53.222;7.446;2022-09-16T06:33:39;10.10;99.90
36186;DHT22;22228;53.222;7.446;2022-09-16T06:36:05;10.20;99.90
36186;DHT22;22228;53.222;7.446;2022-09-16T06:38:26;10.20;99.90
36186;DHT22;22228;53.222;7.446;2022-09-16T06:40:47;10.30;99.90
36186;DHT22;22228;53.222;7.446;2022-09-16T06:43:07;10.40;99.90
36186;DHT22;22228;53.222;7.446;2022-09-16T06:45:29;10.60;99.90
36186;DHT22;22228;53.222;7.446;2022-09-16T06:47:50;10.60;99.90
36186;DHT22;22228;53.222;7.446;2022-09-16T06:50:10;10.60;99.90
36186;DHT22;22228;53.222;7.446;2022-09-16T06:52:31;10.60;99.90
36186;DHT22;22228;53.222;7.446;2022-09-16T06:54:51;10.60;99.90
36186;DHT22;22228;53.222;7.446;2022-09-16T06:57:12;10.70;99.90
36186;DHT22;22228;53.222;7.446;2022-09-16T06:59:33;10.70;99.90
36186;DHT22;22228;53.222;7.446;2022-09-16T07:01:54;10.80;99.90
36186;DHT22;22228;53.222;7.446;2022-09-16T07:04:15;10.80;99.90
36186;DHT22;22228;53.222;7.446;2022-09-16T07:06:35;10.80;99.90
36186;DHT22;22228;53.222;7.446;2022-09-16T07:08:56;10.90;99.90
36186;DHT22;22228;53.222;7.446;2022-09-16T07:11:18;10.90;99.90
36186;DHT22;22228;53.222;7.446;2022-09-16T07:13:39;10.90;99.90
36186;DHT22;22228;53.222;7.446;2022-09-16T07:16:00;10.90;99.90
36186;DHT22;22228;53.222;7.446;2022-09-16T07:18:21;10.90;99.90
36186;DHT22;22228;53.222;7.446;2022-09-16T07:20:42;10.90;99.90
36186;DHT22;22228;53.222;7.446;2022-09-16T07:23:02;10.90;99.90
36186;DHT22;22228;53.222;7.446;2022-09-16T07:25:23;11.00;99.90
36186;DHT22;22228;53.222;7.446;2022-09-16T07:27:43;11.00;99.90
36186;DHT22;22228;53.222;7.446;2022-09-16T07:30:05;11.10;99.90
36186;DHT22;22228;53.222;7.446;2022-09-16T07:32:25;11.10;99.90
36186;DHT22;22228;53.222;7.446;2022-09-16T07:34:47;11.10;99.90
36186;DHT22;22228;53.222;7.446;2022-09-16T07:37:07;11.10;99.90
36186;DHT22;22228;53.222;7.446;2022-09-16T07:39:28;11.10;99.90
36186;DHT22;22228;53.222;7.446;2022-09-16T07:41:48;11.10;99.90
36186;DHT22;22228;53.222;7.446;2022-09-16T07:44:11;11.20;99.90
36186;DHT22;22228;53.222;7.446;2022-09-16T07:46:34;11.30;99.90
36186;DHT22;22228;53.222;7.446;2022-09-16T07:48:56;11.40;99.90
36186;DHT22;22228;53.222;7.446;2022-09-16T07:51:20;11.60;99.90
36186;DHT22;22228;53.222;7.446;2022-09-16T07:53:41;11.90;99.90
36186;DHT22;22228;53.222;7.446;2022-09-16T07:56:04;12.00;99.90
36186;DHT22;22228;53.222;7.446;2022-09-16T07:58:25;12.10;99.90
36186;DHT22;22228;53.222;7.446;2022-09-16T08:00:47;12.00;99.90
36186;DHT22;22228;53.222;7.446;2022-09-16T08:03:07;11.90;99.90
36186;DHT22;22228;53.222;7.446;2022-09-16T08:05:28;11.80;99.90
36186;DHT22;22228;53.222;7.446;2022-09-16T08:07:50;11.70;99.90
36186;DHT22;22228;53.222;7.446;2022-09-16T08:10:10;11.80;99.90
36186;DHT22;22228;53.222;7.446;2022-09-16T08:12:31;11.90;99.90
36186;DHT22;22228;53.222;7.446;2022-09-16T08:14:52;11.90;99.90
36186;DHT22;22228;53.222;7.446;2022-09-16T08:17:12;12.10;99.90
36186;DHT22;22228;53.222;7.446;2022-09-16T08:19:33;12.20;99.90
36186;DHT22;22228;53.222;7.446;2022-09-16T08:21:53;12.30;99.90
36186;DHT22;22228;53.222;7.446;2022-09-16T08:24:15;12.40;99.90
36186;DHT22;22228;53.222;7.446;2022-09-16T08:26:35;12.50;99.90
36186;DHT22;22228;53.222;7.446;2022-09-16T08:28:56;12.70;99.90
36186;DHT22;22228;53.222;7.446;2022-09-16T08:31:17;12.70;99.90
36186;DHT22;22228;53.222;7.446;2022-09-16T08:33:38;12.90;99.90
36186;DHT22;22228;53.222;7.446;2022-09-16T08:35:59;13.20;99.90
36186;DHT22;22228;53.222;7.446;2022-09-16T08:38:19;13.40;99.90
36186;DHT22;22228;53.222;7.446;2022-09-16T08:40:43;13.40;99.90
36186;DHT22;22228;53.222;7.446;2022-09-16T08:43:10;13.30;99.90
36186;DHT22;22228;53.222;7.446;2022-09-16T08:45:40;13.20;99.90
36186;DHT22;22228;53.222;7.446;2022-09-16T08:48:12;13.20;99.90
36186;DHT22;22228;53.222;7.446;2022-09-16T08:50:40;12.90;99.90
36186;DHT22;22228;53.222;7.446;2022-09-16T08:53:03;12.60;99.90
36186;DHT22;22228;53.222;7.446;2022-09-16T08:55:27;12.50;99.90
36186;DHT22;22228;53.222;7.446;2022-09-16T08:57:55;12.40;99.90
36186;DHT22;22228;53.222;7.446;2022-09-16T09:00:17;12.60;99.90
36186;DHT22;22228;53.222;7.446;2022-09-16T09:02:41;12.70;99.90
36186;DHT22;22228;53.222;7.446;2022-09-16T09:05:04;13.00;99.90
36186;DHT22;22228;53.222;7.446;2022-09-16T09:07:31;13.20;99.90
36186;DHT22;22228;53.222;7.446;2022-09-16T09:10:05;13.40;99.90
36186;DHT22;22228;53.222;7.446;2022-09-16T09:12:33;13.60;99.90
36186;DHT22;22228;53.222;7.446;2022-09-16T09:15:06;13.80;99.90
36186;DHT22;22228;53.222;7.446;2022-09-16T09:17:44;13.90;99.90
36186;DHT22;22228;53.222;7.446;2022-09-16T09:20:17;13.90;99.90
36186;DHT22;22228;53.222;7.446;2022-09-16T09:22:53;13.90;99.90
36186;DHT22;22228;53.222;7.446;2022-09-16T09:25:22;13.90;99.90
36186;DHT22;22228;53.222;7.446;2022-09-16T10:15:43;14.20;99.90
36186;DHT22;22228;53.222;7.446;2022-09-16T10:18:11;13.90;99.90
36186;DHT22;22228;53.222;7.446;2022-09-16T10:20:34;12.40;99.90
36186;DHT22;22228;53.222;7.446;2022-09-16T10:22:59;11.60;99.90
36186;DHT22;22228;53.222;7.446;2022-09-16T10:25:22;11.30;99.90
36186;DHT22;22228;53.222;7.446;2022-09-16T10:27:53;11.10;99.90
36186;DHT22;22228;53.222;7.446;2022-09-16T10:30:16;11.10;99.90
36186;DHT22;22228;53.222;7.446;2022-09-16T10:32:44;11.20;99.90
36186;DHT22;22228;53.222;7.446;2022-09-16T10:35:06;11.40;99.90
36186;DHT22;22228;53.222;7.446;2022-09-16T10:37:27;11.60;99.90
36186;DHT22;22228;53.222;7.446;2022-09-16T10:42:21;12.50;99.90
36186;DHT22;22228;53.222;7.446;2022-09-16T10:44:42;13.10;99.90
36186;DHT22;22228;53.222;7.446;2022-09-16T10:47:06;13.60;99.90
36186;DHT22;22228;53.222;7.446;2022-09-16T10:49:38;14.20;99.90
36186;DHT22;22228;53.222;7.446;2022-09-16T10:52:07;14.60;99.90
36186;DHT22;22228;53.222;7.446;2022-09-16T10:54:28;14.40;99.90
36186;DHT22;22228;53.222;7.446;2022-09-16T10:56:50;14.20;99.90
36186;DHT22;22228;53.222;7.446;2022-09-16T10:59:13;14.00;99.90
36186;DHT22;22228;53.222;7.446;2022-09-16T11:01:41;13.90;99.90
36186;DHT22;22228;53.222;7.446;2022-09-16T11:04:25;13.80;99.90
36186;DHT22;22228;53.222;7.446;2022-09-16T11:06:58;13.50;99.90
36186;DHT22;22228;53.222;7.446;2022-09-16T11:09:27;13.50;99.90
36186;DHT22;22228;53.222;7.446;2022-09-16T11:12:02;13.80;99.90
36186;DHT22;22228;53.222;7.446;2022-09-16T11:14:34;14.20;99.90
36186;DHT22;22228;53.222;7.446;2022-09-16T11:17:10;14.60;99.90
36186;DHT22;22228;53.222;7.446;2022-09-16T11:19:42;14.90;99.90
36186;DHT22;22228;53.222;7.446;2022-09-16T11:22:15;15.20;99.90
36186;DHT22;22228;53.222;7.446;2022-09-16T11:24:56;15.40;99.90
36186;DHT22;22228;53.222;7.446;2022-09-16T11:27:30;15.50;99.90
36186;DHT22;22228;53.222;7.446;2022-09-16T11:30:03;15.40;99.90
36186;DHT22;22228;53.222;7.446;2022-09-16T11:32:31;15.30;99.90
36186;DHT22;22228;53.222;7.446;2022-09-16T11:35:13;15.10;99.90
36186;DHT22;22228;53.222;7.446;2022-09-16T11:37:43;15.00;99.90
36186;DHT22;22228;53.222;7.446;2022-09-16T11:40:14;15.10;99.90
36186;DHT22;22228;53.222;7.446;2022-09-16T11:42:41;15.20;99.90
36186;DHT22;22228;53.222;7.446;2022-09-16T11:45:14;15.30;99.90
36186;DHT22;22228;53.222;7.446;2022-09-16T11:47:48;15.50;99.90
36186;DHT22;22228;53.222;7.446;2022-09-16T11:50:26;15.60;99.90
36186;DHT22;22228;53.222;7.446;2022-09-16T11:53:11;15.70;99.90
36186;DHT22;22228;53.222;7.446;2022-09-16T11:55:43;15.90;99.90
36186;DHT22;22228;53.222;7.446;2022-09-16T11:58:22;16.10;99.90
36186;DHT22;22228;53.222;7.446;2022-09-16T12:00:48;16.10;99.90
36186;DHT22;22228;53.222;7.446;2022-09-16T12:03:12;16.10;99.90
36186;DHT22;22228;53.222;7.446;2022-09-16T12:05:40;16.20;99.90
36186;DHT22;22228;53.222;7.446;2022-09-16T12:08:05;16.30;99.90
36186;DHT22;22228;53.222;7.446;2022-09-16T12:10:32;16.30;99.90
36186;DHT22;22228;53.222;7.446;2022-09-16T12:12:58;16.20;99.90
36186;DHT22;22228;53.222;7.446;2022-09-16T12:15:22;16.00;99.90
36186;DHT22;22228;53.222;7.446;2022-09-16T12:17:51;16.00;99.90
36186;DHT22;22228;53.222;7.446;2022-09-16T12:20:15;16.00;99.90
36186;DHT22;22228;53.222;7.446;2022-09-16T12:22:40;16.00;99.90
36186;DHT22;22228;53.222;7.446;2022-09-16T12:25:06;15.90;99.90
36186;DHT22;22228;53.222;7.446;2022-09-16T12:27:37;15.80;99.90
36186;DHT22;22228;53.222;7.446;2022-09-16T12:30:03;15.80;99.90
36186;DHT22;22228;53.222;7.446;2022-09-16T12:32:36;15.80;99.90
36186;DHT22;22228;53.222;7.446;2022-09-16T12:35:02;15.70;99.90
36186;DHT22;22228;53.222;7.446;2022-09-16T12:37:36;15.60;99.90
36186;DHT22;22228;53.222;7.446;2022-09-16T12:39:58;15.70;99.90
36186;DHT22;22228;53.222;7.446;2022-09-16T12:45:27;15.60;99.90
36186;DHT22;22228;53.222;7.446;2022-09-16T12:48:00;15.70;99.90
36186;DHT22;22228;53.222;7.446;2022-09-16T12:50:53;15.70;99.90
36186;DHT22;22228;53.222;7.446;2022-09-16T12:53:46;15.70;99.90
36186;DHT22;22228;53.222;7.446;2022-09-16T12:56:15;15.70;99.90
36186;DHT22;22228;53.222;7.446;2022-09-16T12:58:51;15.60;99.90
36186;DHT22;22228;53.222;7.446;2022-09-16T13:01:19;15.70;99.90
36186;DHT22;22228;53.222;7.446;2022-09-16T13:03:43;15.70;99.90
36186;DHT22;22228;53.222;7.446;2022-09-16T13:06:17;15.80;99.90
36186;DHT22;22228;53.222;7.446;2022-09-16T13:08:38;15.80;99.90
36186;DHT22;22228;53.222;7.446;2022-09-16T13:11:01;15.80;99.90
36186;DHT22;22228;53.222;7.446;2022-09-16T13:13:29;15.80;99.90
36186;DHT22;22228;53.222;7.446;2022-09-16T13:15:55;15.80;99.90
36186;DHT22;22228;53.222;7.446;2022-09-16T13:18:23;15.70;99.90
36186;DHT22;22228;53.222;7.446;2022-09-16T13:20:48;15.70;99.90
36186;DHT22;22228;53.222;7.446;2022-09-16T13:23:16;15.70;99.90
36186;DHT22;22228;53.222;7.446;2022-09-16T13:25:44;15.60;99.90
36186;DHT22;22228;53.222;7.446;2022-09-16T13:28:22;15.50;99.90
36186;DHT22;22228;53.222;7.446;2022-09-16T13:30:44;15.10;99.90
36186;DHT22;22228;53.222;7.446;2022-09-16T13:33:26;14.40;99.90
36186;DHT22;22228;53.222;7.446;2022-09-16T13:35:48;13.70;99.90
36186;DHT22;22228;53.222;7.446;2022-09-16T13:38:35;13.40;99.90
36186;DHT22;22228;53.222;7.446;2022-09-16T13:40:59;13.10;99.90
36186;DHT22;22228;53.222;7.446;2022-09-16T13:43:27;13.10;99.90
36186;DHT22;22228;53.222;7.446;2022-09-16T13:45:48;13.10;99.90
36186;DHT22;22228;53.222;7.446;2022-09-16T13:48:11;13.10;99.90
36186;DHT22;22228;53.222;7.446;2022-09-16T13:50:33;13.10;99.90
36186;DHT22;22228;53.222;7.446;2022-09-16T13:52:54;13.20;99.90
36186;DHT22;22228;53.222;7.446;2022-09-16T13:55:20;13.30;99.90
36186;DHT22;22228;53.222;7.446;2022-09-16T13:57:51;13.40;99.90
36186;DHT22;22228;53.222;7.446;2022-09-16T14:00:18;13.40;99.90
36186;DHT22;22228;53.222;7.446;2022-09-16T14:02:56;13.40;99.90
36186;DHT22;22228;53.222;7.446;2022-09-16T14:05:35;13.50;99.90
36186;DHT22;22228;53.222;7.446;2022-09-16T14:08:07;13.70;99.90
36186;DHT22;22228;53.222;7.446;2022-09-16T14:10:36;13.80;99.90
36186;DHT22;22228;53.222;7.446;2022-09-16T14:13:03;14.00;99.90
36186;DHT22;22228;53.222;7.446;2022-09-16T14:15:29;14.10;99.90
36186;DHT22;22228;53.222;7.446;2022-09-16T14:17:57;14.00;99.90
36186;DHT22;22228;53.222;7.446;2022-09-16T14:20:21;13.40;99.90
36186;DHT22;22228;53.222;7.446;2022-09-16T14:22:43;12.90;99.90
36186;DHT22;22228;53.222;7.446;2022-09-16T14:25:26;12.70;99.90
36186;DHT22;22228;53.222;7.446;2022-09-16T14:27:48;12.80;99.90
36186;DHT22;22228;53.222;7.446;2022-09-16T14:30:13;12.90;99.90
36186;DHT22;22228;53.222;7.446;2022-09-16T14:32:36;13.00;99.90
36186;DHT22;22228;53.222;7.446;2022-09-16T14:35:02;13.10;99.90
36186;DHT22;22228;53.222;7.446;2022-09-16T14:37:24;13.30;99.90
36186;DHT22;22228;53.222;7.446;2022-09-16T14:39:46;13.30;99.90
36186;DHT22;22228;53.222;7.446;2022-09-16T14:42:06;13.20;99.90
36186;DHT22;22228;53.222;7.446;2022-09-16T14:44:32;13.10;99.90
36186;DHT22;22228;53.222;7.446;2022-09-16T14:46:56;13.00;99.90
36186;DHT22;22228;53.222;7.446;2022-09-16T14:49:18;12.90;99.90
36186;DHT22;22228;53.222;7.446;2022-09-16T14:51:42;12.70;99.90
36186;DHT22;22228;53.222;7.446;2022-09-16T14:54:04;12.60;99.90
36186;DHT22;22228;53.222;7.446;2022-09-16T14:56:24;12.50;99.90
36186;DHT22;22228;53.222;7.446;2022-09-16T14:58:45;12.40;99.90
36186;DHT22;22228;53.222;7.446;2022-09-16T15:01:09;12.40;99.90
36186;DHT22;22228;53.222;7.446;2022-09-16T15:03:40;12.40;99.90
36186;DHT22;22228;53.222;7.446;2022-09-16T15:06:04;12.40;99.90
36186;DHT22;22228;53.222;7.446;2022-09-16T15:08:29;12.40;99.90
36186;DHT22;22228;53.222;7.446;2022-09-16T15:10:52;12.40;99.90
36186;DHT22;22228;53.222;7.446;2022-09-16T15:13:14;12.50;99.90
36186;DHT22;22228;53.222;7.446;2022-09-16T15:15:36;12.50;99.90
36186;DHT22;22228;53.222;7.446;2022-09-16T15:18:04;12.40;99.90
36186;DHT22;22228;53.222;7.446;2022-09-16T15:20:28;12.30;99.90
36186;DHT22;22228;53.222;7.446;2022-09-16T15:22:49;12.20;99.90
36186;DHT22;22228;53.222;7.446;2022-09-16T15:25:18;12.00;99.90
36186;DHT22;22228;53.222;7.446;2022-09-16T15:27:39;11.70;99.90
36186;DHT22;22228;53.222;7.446;2022-09-16T15:30:00;11.60;99.90
36186;DHT22;22228;53.222;7.446;2022-09-16T15:32:25;11.60;99.90
36186;DHT22;22228;53.222;7.446;2022-09-16T15:34:47;11.50;99.90
36186;DHT22;22228;53.222;7.446;2022-09-16T15:37:37;11.50;99.90
36186;DHT22;22228;53.222;7.446;2022-09-16T15:40:22;11.50;99.90
36186;DHT22;22228;53.222;7.446;2022-09-16T15:43:00;11.50;99.90
36186;DHT22;22228;53.222;7.446;2022-09-16T15:45:20;11.50;99.90
36186;DHT22;22228;53.222;7.446;2022-09-16T15:47:50;11.40;99.90
36186;DHT22;22228;53.222;7.446;2022-09-16T15:50:15;11.40;99.90
36186;DHT22;22228;53.222;7.446;2022-09-16T15:52:50;11.40;99.90
36186;DHT22;22228;53.222;7.446;2022-09-16T15:55:23;11.40;99.90
36186;DHT22;22228;53.222;7.446;2022-09-16T15:57:45;11.50;99.90
36186;DHT22;22228;53.222;7.446;2022-09-16T16:00:07;11.50;99.90
36186;DHT22;22228;53.222;7.446;2022-09-16T16:02:37;11.50;99.90
36186;DHT22;22228;53.222;7.446;2022-09-16T16:05:04;11.50;99.90
36186;DHT22;22228;53.222;7.446;2022-09-16T16:07:41;11.50;99.90
36186;DHT22;22228;53.222;7.446;2022-09-16T16:10:10;11.40;99.90
36186;DHT22;22228;53.222;7.446;2022-09-16T16:12:32;11.30;99.90